createdAt,value
2023-03-12T00:00:10.460Z,2.57
2023-03-12T00:02:38.125Z,2.27
2023-03-12T00:05:06.537Z,3.47
2023-03-12T00:07:33.607Z,3.40
2023-03-12T00:10:00.579Z,2.63
2023-03-12T00:12:28.825Z,2.83
2023-03-12T00:14:55.711Z,2.63
2023-03-12T00:17:22.900Z,2.70
2023-03-12T00:19:52.628Z,2.90
2023-03-12T00:22:22.871Z,2.40
2023-03-12T00:24:52.140Z,2.47
2023-03-12T00:27:20.174Z,3.13
2023-03-12T00:29:48.869Z,2.60
2023-03-12T00:32:16.758Z,2.93
2023-03-12T00:34:43.966Z,2.47
2023-03-12T00:37:10.941Z,2.40
2023-03-12T00:39:37.839Z,2.40
2023-03-12T00:42:05.415Z,2.70
2023-03-12T00:44:32.417Z,2.67
2023-03-12T00:47:00.689Z,3.23
2023-03-12T00:49:27.694Z,2.70
2023-03-12T00:51:54.897Z,2.50
2023-03-12T00:54:22.224Z,3.63
2023-03-12T00:56:49.866Z,2.77
2023-03-12T00:59:17.091Z,3.10
2023-03-12T01:01:44.100Z,3.20
2023-03-12T01:04:12.461Z,2.70
2023-03-12T01:06:39.915Z,3.07
2023-03-12T01:09:09.250Z,3.30
2023-03-12T01:11:38.670Z,2.50
2023-03-12T01:14:09.101Z,3.73
2023-03-12T01:16:36.056Z,3.17
2023-03-12T01:19:04.118Z,2.83
2023-03-12T01:21:32.652Z,2.83
2023-03-12T01:23:59.641Z,2.70
2023-03-12T01:26:26.926Z,2.60
2023-03-12T01:28:54.000Z,3.20
2023-03-12T01:31:21.329Z,2.90
2023-03-12T01:33:50.434Z,2.70
2023-03-12T01:36:20.532Z,3.57
2023-03-12T01:38:51.243Z,3.23
2023-03-12T01:41:18.929Z,3.90
2023-03-12T01:43:46.421Z,3.00
2023-03-12T01:46:32.856Z,3.53
2023-03-12T01:49:08.822Z,3.90
2023-03-12T01:51:41.111Z,3.10
2023-03-12T01:54:15.496Z,3.07
2023-03-12T01:56:43.363Z,4.07
2023-03-12T01:59:16.960Z,3.87
2023-03-12T02:01:45.927Z,3.67
2023-03-12T02:04:16.041Z,3.60
2023-03-12T02:06:51.338Z,4.40
2023-03-12T02:09:21.636Z,3.50
2023-03-12T02:11:48.860Z,3.83
2023-03-12T02:14:16.221Z,4.17
2023-03-12T02:16:44.133Z,4.50
2023-03-12T02:19:23.469Z,5.60
2023-03-12T02:21:50.794Z,3.73
2023-03-12T02:24:30.783Z,4.20
2023-03-12T02:27:00.953Z,5.43
2023-03-12T02:29:33.037Z,7.63
2023-03-12T02:32:04.208Z,6.37
2023-03-12T02:34:31.273Z,6.07
2023-03-12T02:36:58.334Z,12.20
2023-03-12T02:39:25.265Z,4.93
2023-03-12T02:41:55.378Z,5.57
2023-03-12T02:44:26.676Z,4.97
2023-03-12T02:46:56.029Z,5.43
2023-03-12T02:49:26.629Z,4.10
2023-03-12T02:51:54.540Z,4.37
2023-03-12T02:54:22.751Z,2.70
2023-03-12T02:56:50.836Z,3.70
2023-03-12T02:59:21.666Z,3.60
2023-03-12T03:01:54.394Z,3.50
2023-03-12T03:04:21.514Z,3.30
2023-03-12T03:06:48.864Z,2.60
2023-03-12T03:09:16.463Z,4.17
2023-03-12T03:11:43.491Z,4.57
2023-03-12T03:14:10.548Z,3.87
2023-03-12T03:16:37.696Z,3.93
2023-03-12T03:19:06.743Z,3.10
2023-03-12T03:21:35.251Z,3.57
2023-03-12T03:24:02.142Z,3.27
2023-03-12T03:26:29.109Z,3.27
2023-03-12T03:28:56.227Z,3.13
2023-03-12T03:31:23.294Z,2.53
2023-03-12T03:33:50.865Z,3.83
2023-03-12T03:36:19.445Z,3.30
2023-03-12T03:38:49.305Z,3.17
2023-03-12T03:41:17.510Z,2.73
2023-03-12T03:43:45.000Z,3.73
2023-03-12T03:46:13.813Z,3.30
2023-03-12T03:48:41.566Z,3.60
2023-03-12T03:51:11.775Z,3.13
2023-03-12T03:53:40.276Z,3.13
2023-03-12T03:56:09.790Z,3.23
2023-03-12T03:58:37.041Z,2.77
2023-03-12T04:01:05.933Z,3.17
2023-03-12T04:03:34.194Z,3.10
2023-03-12T04:06:04.454Z,3.07
2023-03-12T04:08:32.921Z,3.13
2023-03-12T04:11:06.882Z,3.40
2023-03-12T04:13:33.842Z,2.87
2023-03-12T04:16:00.737Z,3.33
2023-03-12T04:18:27.614Z,2.77
2023-03-12T04:20:54.538Z,3.00
2023-03-12T04:23:21.447Z,3.07
2023-03-12T04:25:48.293Z,2.90
2023-03-12T04:28:16.545Z,2.30
2023-03-12T04:30:43.413Z,2.90
2023-03-12T04:33:10.446Z,2.80
2023-03-12T04:35:37.361Z,3.10
2023-03-12T04:38:04.403Z,3.27
2023-03-12T04:40:31.481Z,3.37
2023-03-12T04:42:58.362Z,2.90
2023-03-12T04:45:26.684Z,2.97
2023-03-12T04:47:53.726Z,2.40
2023-03-12T04:50:20.862Z,3.23
2023-03-12T04:52:47.813Z,2.83
2023-03-12T04:55:14.695Z,3.40
2023-03-12T04:57:41.670Z,3.03
2023-03-12T05:00:12.944Z,2.73
2023-03-12T05:02:41.740Z,3.30
2023-03-12T05:05:11.568Z,3.80
2023-03-12T05:07:38.484Z,2.97
2023-03-12T05:10:07.308Z,3.00
2023-03-12T05:12:34.281Z,2.93
2023-03-12T05:15:01.198Z,3.77
2023-03-12T05:17:28.247Z,2.80
2023-03-12T05:19:56.485Z,2.80
2023-03-12T05:22:23.362Z,3.00
2023-03-12T05:24:50.255Z,3.00
2023-03-12T05:27:17.465Z,2.70
2023-03-12T05:29:44.338Z,2.83
2023-03-12T05:32:11.227Z,3.40
2023-03-12T05:34:38.104Z,2.97
2023-03-12T05:37:06.337Z,2.90
2023-03-12T05:39:33.300Z,3.37
2023-03-12T05:42:00.434Z,3.93
2023-03-12T05:44:27.901Z,2.70
2023-03-12T05:46:56.162Z,3.30
2023-03-12T05:49:24.652Z,3.00
2023-03-12T05:51:51.699Z,3.40
2023-03-12T05:54:19.945Z,2.60
2023-03-12T05:56:46.888Z,2.87
2023-03-12T05:59:13.898Z,3.50
2023-03-12T06:01:41.432Z,3.03
2023-03-12T06:04:09.080Z,2.87
2023-03-12T06:06:37.853Z,3.10
2023-03-12T06:09:05.924Z,3.53
2023-03-12T06:11:35.254Z,2.90
2023-03-12T06:14:02.629Z,3.27
2023-03-12T06:16:30.067Z,3.10
2023-03-12T06:19:00.268Z,3.80
2023-03-12T06:21:30.623Z,3.80
2023-03-12T06:23:59.025Z,3.27
2023-03-12T06:26:26.998Z,4.07
2023-03-12T06:28:55.757Z,3.33
2023-03-12T06:31:23.807Z,3.50
2023-03-12T06:33:51.564Z,3.07
2023-03-12T06:36:18.581Z,3.53
2023-03-12T06:38:45.472Z,3.90
2023-03-12T06:41:16.297Z,3.50
2023-03-12T06:43:44.940Z,3.73
2023-03-12T06:46:16.569Z,3.50
2023-03-12T06:48:46.074Z,3.57
2023-03-12T06:51:15.306Z,3.53
2023-03-12T06:53:42.716Z,3.63
2023-03-12T06:56:10.699Z,3.67
2023-03-12T06:58:37.735Z,3.20
2023-03-12T07:01:05.748Z,3.80
2023-03-12T07:03:34.600Z,4.00
2023-03-12T07:06:02.011Z,4.33
2023-03-12T07:08:32.101Z,4.07
2023-03-12T07:11:03.291Z,3.77
2023-03-12T07:13:30.868Z,3.80
2023-03-12T07:15:58.111Z,3.60
2023-03-12T07:18:25.305Z,3.40
2023-03-12T07:20:53.777Z,4.33
2023-03-12T07:23:21.419Z,3.23
2023-03-12T07:25:48.413Z,3.40
2023-03-12T07:28:16.826Z,3.70
2023-03-12T07:30:50.050Z,3.97
2023-03-12T07:33:19.805Z,3.90
2023-03-12T07:35:50.977Z,3.37
2023-03-12T07:38:20.092Z,4.57
2023-03-12T07:40:51.537Z,3.47
2023-03-12T07:43:20.463Z,3.57
2023-03-12T07:45:48.749Z,3.60
2023-03-12T07:48:16.044Z,3.80
2023-03-12T07:50:43.258Z,3.47
2023-03-12T07:53:10.114Z,3.47
2023-03-12T07:55:38.552Z,3.70
2023-03-12T07:58:05.497Z,3.67
2023-03-12T08:00:32.845Z,4.10
2023-03-12T08:02:59.885Z,4.40
2023-03-12T08:05:27.043Z,4.30
2023-03-12T08:07:54.321Z,4.47
2023-03-12T08:10:22.834Z,4.17
2023-03-12T08:12:51.363Z,3.93
2023-03-12T08:15:18.485Z,3.73
2023-03-12T08:17:45.407Z,3.93
2023-03-12T08:20:13.707Z,4.20
2023-03-12T08:22:41.083Z,4.07
2023-03-12T08:25:09.663Z,3.50
2023-03-12T08:27:36.974Z,4.03
2023-03-12T08:30:07.009Z,4.17
2023-03-12T08:32:34.437Z,4.13
2023-03-12T08:35:01.583Z,4.00
2023-03-12T08:37:28.615Z,3.90
2023-03-12T08:39:55.705Z,4.10
2023-03-12T08:42:22.753Z,4.00
2023-03-12T08:44:49.654Z,3.93
2023-03-12T08:47:17.904Z,4.23
2023-03-12T08:49:44.901Z,4.27
2023-03-12T08:52:11.760Z,3.67
2023-03-12T08:54:38.663Z,4.20
2023-03-12T08:57:05.583Z,4.37
2023-03-12T08:59:32.479Z,4.23
2023-03-12T09:01:59.412Z,4.00
2023-03-12T09:04:27.696Z,3.87
2023-03-12T09:06:54.650Z,4.00
2023-03-12T09:09:21.565Z,3.90
2023-03-12T09:11:48.460Z,4.07
2023-03-12T09:14:57.509Z,3.80
2023-03-12T09:17:02.796Z,4.20
2023-03-12T09:19:31.141Z,3.83
2023-03-12T09:21:58.063Z,3.77
2023-03-12T09:24:25.047Z,4.20
2023-03-12T09:26:52.008Z,4.23
2023-03-12T09:29:18.858Z,3.40
2023-03-12T09:31:45.735Z,4.20
2023-03-12T09:34:12.618Z,3.93
2023-03-12T09:36:40.902Z,3.47
2023-03-12T09:39:07.978Z,3.47
2023-03-12T09:41:39.834Z,4.27
2023-03-12T09:44:19.349Z,3.83
2023-03-12T09:46:52.316Z,3.50
2023-03-12T09:49:38.167Z,4.00
2023-03-12T09:52:22.322Z,3.87
2023-03-12T09:55:02.444Z,3.57
2023-03-12T09:57:32.291Z,3.53
2023-03-12T10:00:00.149Z,3.63
2023-03-12T10:02:52.926Z,3.87
2023-03-12T10:05:31.862Z,2.83
2023-03-12T10:08:23.542Z,3.47
2023-03-12T10:10:58.823Z,3.00
2023-03-12T10:13:49.533Z,3.37
2023-03-12T10:16:49.102Z,3.07
2023-03-12T10:19:46.206Z,3.27
2023-03-12T10:22:31.946Z,3.80
2023-03-12T10:25:12.965Z,3.60
2023-03-12T10:27:41.713Z,3.03
2023-03-12T10:30:19.925Z,3.30
2023-03-12T10:32:50.493Z,2.70
2023-03-12T10:35:21.893Z,2.97
2023-03-12T10:37:53.457Z,2.93
2023-03-12T10:40:27.304Z,3.17
2023-03-12T10:42:55.436Z,3.63
2023-03-12T10:45:34.609Z,3.03
2023-03-12T10:48:07.063Z,2.90
2023-03-12T10:50:37.187Z,3.10
2023-03-12T10:53:20.532Z,3.20
2023-03-12T10:56:02.269Z,3.23
2023-03-12T10:58:35.782Z,3.13
2023-03-12T11:01:06.279Z,3.00
2023-03-12T11:03:33.949Z,2.90
2023-03-12T11:06:03.076Z,3.17
2023-03-12T11:08:33.963Z,3.30
2023-03-12T11:11:05.639Z,2.87
2023-03-12T11:13:35.684Z,3.03
2023-03-12T11:16:24.946Z,2.67
2023-03-12T11:18:57.111Z,2.60
2023-03-12T11:21:24.298Z,2.53
2023-03-12T11:24:08.973Z,2.90
2023-03-12T11:26:49.497Z,2.37
2023-03-12T11:29:32.878Z,2.30
2023-03-12T11:32:10.477Z,2.37
2023-03-12T11:34:39.742Z,3.47
2023-03-12T11:37:14.257Z,2.87
2023-03-12T11:40:09.787Z,3.03
2023-03-12T11:42:59.660Z,3.40
2023-03-12T11:45:40.075Z,3.07
2023-03-12T11:48:23.291Z,2.60
2023-03-12T11:51:13.544Z,3.20
2023-03-12T11:54:06.809Z,2.90
2023-03-12T11:56:40.402Z,3.33
2023-03-12T11:59:28.825Z,3.60
2023-03-12T12:02:21.317Z,3.70
2023-03-12T12:05:18.154Z,3.60
2023-03-12T12:08:03.905Z,3.20
2023-03-12T12:10:46.270Z,4.13
2023-03-12T12:13:25.422Z,3.23
2023-03-12T12:16:13.501Z,4.23
2023-03-12T12:19:04.457Z,3.47
2023-03-12T12:21:56.254Z,3.83
2023-03-12T12:24:41.285Z,3.30
2023-03-12T12:27:20.835Z,3.13
2023-03-12T12:30:14.624Z,3.70
2023-03-12T12:33:09.374Z,3.73
2023-03-12T12:35:40.271Z,4.07
2023-03-12T12:38:16.604Z,4.90
2023-03-12T12:40:51.321Z,3.40
2023-03-12T12:43:29.899Z,3.90
2023-03-12T12:46:02.099Z,4.30
2023-03-12T12:48:37.149Z,4.27
2023-03-12T12:51:08.925Z,3.63
2023-03-12T12:53:47.664Z,3.60
2023-03-12T12:56:28.120Z,3.90
2023-03-12T12:59:31.553Z,3.80
2023-03-12T13:02:02.132Z,3.83
2023-03-12T13:04:35.552Z,4.30
2023-03-12T13:07:27.518Z,4.20
2023-03-12T13:09:58.143Z,3.63
2023-03-12T13:12:31.227Z,3.80
2023-03-12T13:15:00.703Z,4.60
2023-03-12T13:17:35.492Z,4.37
2023-03-12T13:20:20.747Z,5.27
2023-03-12T13:23:09.574Z,4.70
2023-03-12T13:25:55.372Z,4.87
2023-03-12T13:29:09.746Z,4.77
2023-03-12T13:31:41.590Z,4.03
2023-03-12T13:34:47.587Z,4.57
2023-03-12T13:38:01.653Z,4.13
2023-03-12T13:41:06.217Z,4.87
2023-03-12T13:43:52.612Z,4.47
2023-03-12T13:46:39.078Z,4.83
2023-03-12T13:49:14.418Z,4.70
2023-03-12T13:51:57.757Z,4.93
2023-03-12T13:54:32.512Z,4.50
2023-03-12T13:57:09.950Z,5.13
2023-03-12T13:59:44.272Z,4.27
2023-03-12T14:02:24.378Z,4.73
2023-03-12T14:04:51.829Z,4.63
2023-03-12T14:07:49.610Z,4.03
2023-03-12T14:10:36.495Z,4.03
2023-03-12T14:13:24.650Z,5.00
2023-03-12T14:16:02.973Z,4.20
2023-03-12T14:18:34.384Z,5.03
2023-03-12T14:21:08.226Z,4.93
2023-03-12T14:23:39.381Z,5.20
2023-03-12T14:26:08.457Z,5.37
2023-03-12T14:28:41.971Z,5.43
2023-03-12T14:31:15.256Z,6.13
2023-03-12T14:33:54.762Z,4.60
2023-03-12T14:36:27.131Z,6.10
2023-03-12T14:39:12.556Z,5.73
2023-03-12T14:41:49.081Z,6.00
2023-03-12T14:44:24.046Z,6.77
2023-03-12T14:46:59.735Z,5.70
2023-03-12T14:49:27.503Z,6.30
2023-03-12T14:51:55.294Z,6.47
2023-03-12T14:54:26.437Z,7.23
2023-03-12T14:56:53.430Z,7.27
2023-03-12T14:59:29.252Z,7.00
2023-03-12T15:02:01.920Z,7.30
2023-03-12T15:04:33.312Z,7.07
2023-03-12T15:07:06.444Z,7.87
2023-03-12T15:09:36.530Z,7.30
2023-03-12T15:12:07.885Z,7.27
2023-03-12T15:14:42.211Z,8.00
2023-03-12T15:17:17.469Z,7.40
2023-03-12T15:19:45.453Z,6.50
2023-03-12T15:22:17.948Z,7.80
2023-03-12T15:24:45.328Z,8.30
2023-03-12T15:27:32.595Z,6.97
2023-03-12T15:30:01.943Z,7.63
2023-03-12T15:32:31.619Z,7.57
2023-03-12T15:34:59.789Z,7.03
2023-03-12T15:37:37.881Z,7.90
2023-03-12T15:40:19.685Z,8.20
2023-03-12T15:42:48.520Z,8.10
2023-03-12T15:45:23.133Z,9.00
2023-03-12T15:47:53.185Z,8.00
2023-03-12T15:50:28.893Z,8.20
2023-03-12T15:53:02.894Z,7.37
2023-03-12T15:55:31.519Z,8.73
2023-03-12T15:57:59.624Z,8.77
2023-03-12T16:00:30.588Z,7.90
2023-03-12T16:03:00.226Z,10.03
2023-03-12T16:05:31.397Z,9.20
2023-03-12T16:08:03.032Z,10.17
2023-03-12T16:10:39.733Z,10.27
2023-03-12T16:13:07.178Z,10.47
2023-03-12T16:15:38.871Z,10.50
2023-03-12T16:18:13.308Z,10.87
2023-03-12T16:20:40.803Z,11.77
2023-03-12T16:23:07.775Z,11.17
2023-03-12T16:25:35.888Z,11.20
2023-03-12T16:28:06.180Z,12.60
2023-03-12T16:30:36.890Z,11.20
2023-03-12T16:33:09.091Z,10.83
2023-03-12T16:35:36.436Z,12.97
2023-03-12T16:38:03.941Z,12.20
2023-03-12T16:40:35.503Z,13.10
2023-03-12T16:43:07.846Z,12.47
2023-03-12T16:45:37.477Z,13.80
2023-03-12T16:48:06.681Z,12.83
2023-03-12T16:50:33.797Z,15.20
2023-03-12T16:53:04.275Z,13.97
2023-03-12T16:55:46.360Z,15.30
2023-03-12T16:58:16.189Z,13.97
2023-03-12T17:00:45.491Z,15.63
2023-03-12T17:03:21.953Z,13.67
2023-03-12T17:05:48.944Z,14.90
2023-03-12T17:08:16.057Z,16.80
2023-03-12T17:10:43.595Z,16.00
2023-03-12T17:13:19.962Z,14.07
2023-03-12T17:15:48.767Z,16.90
2023-03-12T17:18:16.323Z,15.63
2023-03-12T17:20:43.561Z,15.37
2023-03-12T17:23:10.811Z,13.63
2023-03-12T17:25:40.723Z,15.20
2023-03-12T17:28:09.319Z,13.90
2023-03-12T17:30:37.187Z,14.13
2023-03-12T17:33:09.591Z,14.60
2023-03-12T17:35:37.007Z,15.23
2023-03-12T17:38:04.056Z,15.83
2023-03-12T17:40:31.411Z,14.77
2023-03-12T17:42:58.637Z,14.60
2023-03-12T17:45:25.822Z,14.77
2023-03-12T17:47:52.979Z,16.67
2023-03-12T17:50:21.513Z,14.97
2023-03-12T17:52:48.397Z,14.50
2023-03-12T17:55:15.392Z,14.90
2023-03-12T17:57:44.512Z,14.80
2023-03-12T18:00:13.362Z,15.63
2023-03-12T18:02:42.028Z,15.03
2023-03-12T18:05:11.390Z,14.17
2023-03-12T18:07:40.242Z,14.33
2023-03-12T18:10:13.796Z,16.60
2023-03-12T18:12:41.200Z,14.60
2023-03-12T18:15:12.992Z,14.73
2023-03-12T18:17:40.968Z,14.80
2023-03-12T18:20:12.513Z,15.10
2023-03-12T18:22:42.847Z,15.07
2023-03-12T18:25:11.963Z,16.03
2023-03-12T18:27:39.214Z,14.20
2023-03-12T18:30:11.273Z,13.37
2023-03-12T18:32:38.501Z,14.57
2023-03-12T18:35:07.542Z,13.03
2023-03-12T18:37:34.842Z,13.00
2023-03-12T18:40:05.256Z,12.63
2023-03-12T18:42:32.195Z,13.30
2023-03-12T18:44:59.072Z,12.33
2023-03-12T18:47:26.350Z,12.70
2023-03-12T18:49:55.065Z,14.20
2023-03-12T18:52:22.243Z,12.73
2023-03-12T18:54:49.191Z,11.57
2023-03-12T18:57:17.541Z,12.10
2023-03-12T18:59:45.962Z,10.87
2023-03-12T19:02:12.978Z,11.40
2023-03-12T19:04:40.025Z,10.97
2023-03-12T19:07:07.883Z,10.60
2023-03-12T19:09:35.105Z,10.17
2023-03-12T19:12:02.057Z,10.37
2023-03-12T19:14:31.355Z,9.53
2023-03-12T19:16:58.346Z,9.00
2023-03-12T19:19:25.242Z,9.43
2023-03-12T19:21:52.192Z,9.70
2023-03-12T19:24:20.026Z,9.33
2023-03-12T19:26:46.975Z,9.43
2023-03-12T19:29:15.087Z,8.70
2023-03-12T19:31:43.462Z,8.17
2023-03-12T19:34:10.442Z,10.17
2023-03-12T19:36:37.331Z,8.97
2023-03-12T19:39:12.005Z,8.10
2023-03-12T19:41:46.057Z,8.50
2023-03-12T19:44:13.234Z,9.50
2023-03-12T19:46:42.892Z,10.00
2023-03-12T19:49:11.156Z,8.23
2023-03-12T19:51:40.093Z,8.23
2023-03-12T19:54:07.258Z,8.40
2023-03-12T19:56:34.261Z,9.20
2023-03-12T19:59:01.151Z,8.43
2023-03-12T20:01:28.035Z,8.60
2023-03-12T20:03:55.404Z,8.60
2023-03-12T20:06:23.769Z,9.13
2023-03-12T20:08:50.755Z,9.07
2023-03-12T20:11:17.667Z,8.77
2023-03-12T20:13:45.987Z,9.87
2023-03-12T20:16:25.463Z,9.23
2023-03-12T20:18:52.733Z,8.57
2023-03-12T20:21:19.883Z,9.60
2023-03-12T20:23:48.111Z,10.33
2023-03-12T20:26:15.167Z,9.00
2023-03-12T20:28:42.276Z,10.37
2023-03-12T20:31:10.521Z,9.97
2023-03-12T20:33:37.878Z,10.63
2023-03-12T20:36:06.616Z,10.40
2023-03-12T20:38:34.065Z,10.97
2023-03-12T20:41:03.428Z,11.47
2023-03-12T20:43:33.143Z,10.87
2023-03-12T20:46:00.076Z,10.07
2023-03-12T20:48:27.000Z,11.37
2023-03-12T20:50:55.578Z,11.07
2023-03-12T20:53:22.627Z,10.67
2023-03-12T20:55:49.669Z,10.10
2023-03-12T20:58:17.969Z,10.73
2023-03-12T21:00:45.111Z,10.97
2023-03-12T21:03:13.862Z,9.30
2023-03-12T21:05:41.489Z,9.83
2023-03-12T21:08:08.636Z,10.57
2023-03-12T21:10:36.555Z,8.67
2023-03-12T21:13:04.208Z,8.93
2023-03-12T21:15:32.453Z,8.77
2023-03-12T21:17:59.289Z,8.90
2023-03-12T21:20:26.270Z,9.17
2023-03-12T21:22:53.186Z,8.30
2023-03-12T21:25:20.283Z,8.17
2023-03-12T21:27:50.859Z,7.50
2023-03-12T21:30:19.107Z,7.30
2023-03-12T21:32:47.385Z,7.00
2023-03-12T21:35:14.356Z,8.57
2023-03-12T21:37:41.251Z,7.90
2023-03-12T21:40:10.107Z,6.87
2023-03-12T21:42:36.976Z,6.17
2023-03-12T21:45:05.086Z,6.37
2023-03-12T21:47:32.492Z,6.17
2023-03-12T21:50:00.690Z,6.63
2023-03-12T21:52:27.827Z,6.77
2023-03-12T21:54:54.711Z,6.43
2023-03-12T21:57:21.643Z,4.53
2023-03-12T21:59:48.660Z,6.13
2023-03-12T22:02:16.051Z,6.67
2023-03-12T22:04:43.031Z,6.20
2023-03-12T22:07:11.307Z,7.23
2023-03-12T22:09:38.230Z,5.77
2023-03-12T22:12:05.663Z,5.93
2023-03-12T22:14:32.514Z,5.97
2023-03-12T22:16:59.387Z,5.93
2023-03-12T22:19:26.516Z,6.20
2023-03-12T22:21:53.419Z,6.00
2023-03-12T22:24:21.630Z,6.53
2023-03-12T22:26:48.530Z,5.97
2023-03-12T22:29:15.388Z,6.30
2023-03-12T22:31:42.378Z,6.57
2023-03-12T22:34:09.435Z,6.20
2023-03-12T22:36:38.595Z,6.40
2023-03-12T22:39:05.744Z,7.23
2023-03-12T22:41:34.079Z,6.83
2023-03-12T22:44:04.897Z,7.87
2023-03-12T22:46:32.385Z,6.07
2023-03-12T22:49:01.548Z,6.77
2023-03-12T22:51:30.925Z,6.47
2023-03-12T22:53:57.834Z,8.03
2023-03-12T22:56:25.531Z,7.40
2023-03-12T22:58:55.419Z,7.57
2023-03-12T23:01:23.808Z,7.43
2023-03-12T23:03:51.468Z,7.40
2023-03-12T23:06:21.272Z,6.63
2023-03-12T23:08:48.781Z,8.07
2023-03-12T23:11:17.806Z,7.87
2023-03-12T23:13:45.878Z,7.60
2023-03-12T23:16:17.668Z,7.30
2023-03-12T23:18:45.134Z,7.97
2023-03-12T23:21:15.433Z,7.73
2023-03-12T23:23:43.435Z,7.00
2023-03-12T23:26:15.570Z,7.47
2023-03-12T23:28:42.574Z,6.70
2023-03-12T23:31:10.689Z,7.13
2023-03-12T23:33:39.709Z,8.80
2023-03-12T23:36:11.217Z,7.83
2023-03-12T23:38:39.046Z,7.73
2023-03-12T23:41:08.735Z,7.23
2023-03-12T23:43:35.668Z,8.23
2023-03-12T23:46:05.339Z,7.40
2023-03-12T23:48:35.026Z,7.43
2023-03-12T23:51:15.987Z,7.03
2023-03-12T23:53:46.721Z,8.03
2023-03-12T23:56:16.569Z,7.60
2023-03-12T23:58:44.661Z,7.70
